sensor_id;sensor_type;location;lat;lon;timestamp;pressure;altitude;pressure_sealevel;temperature
19196;BMP280;9730;48.926;11.376;2022-11-04T00:01:25;95717.66;;;8.37
19196;BMP280;9730;48.926;11.376;2022-11-04T00:03:52;95719.28;;;8.38
19196;BMP280;9730;48.926;11.376;2022-11-04T00:06:19;95706.50;;;8.41
19196;BMP280;9730;48.926;11.376;2022-11-04T00:08:51;95696.66;;;8.50
19196;BMP280;9730;48.926;11.376;2022-11-04T00:11:19;95695.84;;;8.50
19196;BMP280;9730;48.926;11.376;2022-11-04T00:14:04;95714.06;;;8.41
19196;BMP280;9730;48.926;11.376;2022-11-04T00:16:30;95703.91;;;8.67
19196;BMP280;9730;48.926;11.376;2022-11-04T00:19:15;95693.09;;;8.90
19196;BMP280;9730;48.926;11.376;2022-11-04T00:21:42;95694.22;;;8.74
19196;BMP280;9730;48.926;11.376;2022-11-04T00:24:27;95717.16;;;8.57
19196;BMP280;9730;48.926;11.376;2022-11-04T00:27:13;95710.44;;;8.57
19196;BMP280;9730;48.926;11.376;2022-11-04T00:29:56;95714.63;;;8.82
19196;BMP280;9730;48.926;11.376;2022-11-04T00:32:23;95725.59;;;8.81
19196;BMP280;9730;48.926;11.376;2022-11-04T00:35:09;95725.78;;;8.78
19196;BMP280;9730;48.926;11.376;2022-11-04T00:37:36;95736.78;;;8.52
19196;BMP280;9730;48.926;11.376;2022-11-04T00:40:05;95730.34;;;8.73
19196;BMP280;9730;48.926;11.376;2022-11-04T00:42:32;95728.00;;;8.95
19196;BMP280;9730;48.926;11.376;2022-11-04T00:44:59;95729.50;;;8.97
19196;BMP280;9730;48.926;11.376;2022-11-04T00:47:25;95737.56;;;8.90
19196;BMP280;9730;48.926;11.376;2022-11-04T00:49:52;95751.94;;;8.88
19196;BMP280;9730;48.926;11.376;2022-11-04T00:52:19;95770.81;;;8.68
19196;BMP280;9730;48.926;11.376;2022-11-04T00:54:46;95758.56;;;8.89
19196;BMP280;9730;48.926;11.376;2022-11-04T00:57:14;95756.06;;;8.89
19196;BMP280;9730;48.926;11.376;2022-11-04T00:59:41;95769.13;;;8.81
19196;BMP280;9730;48.926;11.376;2022-11-04T01:02:09;95772.97;;;8.87
19196;BMP280;9730;48.926;11.376;2022-11-04T01:04:35;95771.97;;;8.77
19196;BMP280;9730;48.926;11.376;2022-11-04T01:07:02;95751.72;;;9.15
19196;BMP280;9730;48.926;11.376;2022-11-04T01:09:28;95740.59;;;9.30
19196;BMP280;9730;48.926;11.376;2022-11-04T01:11:55;95747.13;;;9.33
19196;BMP280;9730;48.926;11.376;2022-11-04T01:14:23;95751.19;;;9.23
19196;BMP280;9730;48.926;11.376;2022-11-04T01:16:49;95779.41;;;9.03
19196;BMP280;9730;48.926;11.376;2022-11-04T01:19:16;95770.13;;;9.03
19196;BMP280;9730;48.926;11.376;2022-11-04T01:21:43;95765.16;;;9.27
19196;BMP280;9730;48.926;11.376;2022-11-04T01:24:09;95768.16;;;9.32
19196;BMP280;9730;48.926;11.376;2022-11-04T01:26:36;95768.59;;;9.26
19196;BMP280;9730;48.926;11.376;2022-11-04T01:29:03;95762.75;;;9.25
19196;BMP280;9730;48.926;11.376;2022-11-04T01:31:31;95751.69;;;9.28
19196;BMP280;9730;48.926;11.376;2022-11-04T01:33:58;95736.19;;;9.34
19196;BMP280;9730;48.926;11.376;2022-11-04T01:36:25;95740.41;;;9.33
19196;BMP280;9730;48.926;11.376;2022-11-04T01:38:53;95720.94;;;9.48
19196;BMP280;9730;48.926;11.376;2022-11-04T01:41:22;95720.72;;;9.51
19196;BMP280;9730;48.926;11.376;2022-11-04T01:43:51;95714.00;;;9.51
19196;BMP280;9730;48.926;11.376;2022-11-04T01:46:26;95716.69;;;9.48
19196;BMP280;9730;48.926;11.376;2022-11-04T01:48:58;95717.09;;;9.54
19196;BMP280;9730;48.926;11.376;2022-11-04T01:51:28;95723.38;;;9.37
19196;BMP280;9730;48.926;11.376;2022-11-04T01:53:57;95708.25;;;9.49
19196;BMP280;9730;48.926;11.376;2022-11-04T01:56:25;95705.13;;;9.58
19196;BMP280;9730;48.926;11.376;2022-11-04T01:58:54;95712.28;;;9.52
19196;BMP280;9730;48.926;11.376;2022-11-04T02:01:22;95714.63;;;9.42
19196;BMP280;9730;48.926;11.376;2022-11-04T02:03:52;95713.50;;;9.46
19196;BMP280;9730;48.926;11.376;2022-11-04T02:06:21;95718.84;;;9.42
19196;BMP280;9730;48.926;11.376;2022-11-04T02:08:48;95718.25;;;9.38
19196;BMP280;9730;48.926;11.376;2022-11-04T02:11:15;95698.72;;;9.42
19196;BMP280;9730;48.926;11.376;2022-11-04T02:13:55;95709.78;;;9.39
19196;BMP280;9730;48.926;11.376;2022-11-04T02:16:27;95696.09;;;9.43
19196;BMP280;9730;48.926;11.376;2022-11-04T02:19:07;95695.38;;;9.41
19196;BMP280;9730;48.926;11.376;2022-11-04T02:21:56;95689.59;;;9.28
19196;BMP280;9730;48.926;11.376;2022-11-04T02:24:41;95681.84;;;9.31
19196;BMP280;9730;48.926;11.376;2022-11-04T02:27:19;95666.19;;;9.51
19196;BMP280;9730;48.926;11.376;2022-11-04T02:30:00;95666.44;;;9.59
19196;BMP280;9730;48.926;11.376;2022-11-04T02:32:36;95672.38;;;9.58
19196;BMP280;9730;48.926;11.376;2022-11-04T02:35:09;95672.13;;;9.50
19196;BMP280;9730;48.926;11.376;2022-11-04T02:37:43;95678.38;;;9.45
19196;BMP280;9730;48.926;11.376;2022-11-04T02:40:20;95671.56;;;9.34
19196;BMP280;9730;48.926;11.376;2022-11-04T02:42:54;95663.34;;;9.32
19196;BMP280;9730;48.926;11.376;2022-11-04T02:45:29;95655.78;;;9.32
19196;BMP280;9730;48.926;11.376;2022-11-04T02:48:02;95646.00;;;9.40
19196;BMP280;9730;48.926;11.376;2022-11-04T02:50:33;95652.84;;;9.38
19196;BMP280;9730;48.926;11.376;2022-11-04T02:53:09;95651.03;;;9.40
19196;BMP280;9730;48.926;11.376;2022-11-04T02:55:42;95663.34;;;9.32
19196;BMP280;9730;48.926;11.376;2022-11-04T02:58:13;95657.13;;;9.25
19196;BMP280;9730;48.926;11.376;2022-11-04T03:00:43;95660.31;;;9.27
19196;BMP280;9730;48.926;11.376;2022-11-04T03:03:14;95677.38;;;9.47
19196;BMP280;9730;48.926;11.376;2022-11-04T03:05:43;95677.78;;;9.41
19196;BMP280;9730;48.926;11.376;2022-11-04T03:08:15;95674.56;;;9.39
19196;BMP280;9730;48.926;11.376;2022-11-04T03:10:46;95666.13;;;9.40
19196;BMP280;9730;48.926;11.376;2022-11-04T03:13:18;95674.56;;;9.39
19196;BMP280;9730;48.926;11.376;2022-11-04T03:15:49;95686.81;;;9.44
19196;BMP280;9730;48.926;11.376;2022-11-04T03:18:21;95681.91;;;9.42
19196;BMP280;9730;48.926;11.376;2022-11-04T03:20:50;95690.34;;;9.41
19196;BMP280;9730;48.926;11.376;2022-11-04T03:23:17;95682.69;;;9.43
19196;BMP280;9730;48.926;11.376;2022-11-04T03:25:45;95681.63;;;9.34
19196;BMP280;9730;48.926;11.376;2022-11-04T03:28:25;95681.03;;;9.31
19196;BMP280;9730;48.926;11.376;2022-11-04T03:31:00;95673.16;;;9.12
19196;BMP280;9730;48.926;11.376;2022-11-04T03:33:32;95674.72;;;9.25
19196;BMP280;9730;48.926;11.376;2022-11-04T03:36:00;95668.03;;;9.37
19196;BMP280;9730;48.926;11.376;2022-11-04T03:38:27;95668.94;;;9.36
19196;BMP280;9730;48.926;11.376;2022-11-04T03:40:54;95665.75;;;9.34
19196;BMP280;9730;48.926;11.376;2022-11-04T03:43:23;95677.66;;;9.43
19196;BMP280;9730;48.926;11.376;2022-11-04T03:45:50;95689.16;;;9.34
19196;BMP280;9730;48.926;11.376;2022-11-04T03:48:18;95690.50;;;9.27
19196;BMP280;9730;48.926;11.376;2022-11-04T03:50:46;95685.47;;;9.27
19196;BMP280;9730;48.926;11.376;2022-11-04T03:53:17;95687.63;;;9.21
19196;BMP280;9730;48.926;11.376;2022-11-04T03:56:01;95687.31;;;9.25
19196;BMP280;9730;48.926;11.376;2022-11-04T03:58:38;95682.94;;;9.27
19196;BMP280;9730;48.926;11.376;2022-11-04T04:01:17;95676.75;;;9.20
19196;BMP280;9730;48.926;11.376;2022-11-04T04:03:54;95676.84;;;9.19
19196;BMP280;9730;48.926;11.376;2022-11-04T04:06:25;95665.78;;;9.21
19196;BMP280;9730;48.926;11.376;2022-11-04T04:08:56;95672.69;;;9.07
19196;BMP280;9730;48.926;11.376;2022-11-04T04:11:34;95678.09;;;9.01
19196;BMP280;9730;48.926;11.376;2022-11-04T04:14:06;95675.09;;;9.08
19196;BMP280;9730;48.926;11.376;2022-11-04T04:16:37;95671.97;;;9.05
19196;BMP280;9730;48.926;11.376;2022-11-04T04:19:09;95664.38;;;9.17
19196;BMP280;9730;48.926;11.376;2022-11-04T04:21:41;95649.28;;;9.17
19196;BMP280;9730;48.926;11.376;2022-11-04T04:24:10;95647.00;;;9.14
19196;BMP280;9730;48.926;11.376;2022-11-04T04:26:55;95657.47;;;9.08
19196;BMP280;9730;48.926;11.376;2022-11-04T04:29:46;95660.69;;;9.10
19196;BMP280;9730;48.926;11.376;2022-11-04T04:32:14;95653.94;;;9.11
19196;BMP280;9730;48.926;11.376;2022-11-04T04:34:43;95643.56;;;9.15
19196;BMP280;9730;48.926;11.376;2022-11-04T04:37:13;95634.13;;;9.06
19196;BMP280;9730;48.926;11.376;2022-11-04T04:39:44;95628.41;;;9.04
19196;BMP280;9730;48.926;11.376;2022-11-04T04:42:30;95617.25;;;9.08
19196;BMP280;9730;48.926;11.376;2022-11-04T04:45:19;95610.81;;;9.04
19196;BMP280;9730;48.926;11.376;2022-11-04T04:47:47;95617.75;;;9.01
19196;BMP280;9730;48.926;11.376;2022-11-04T04:50:16;95607.63;;;8.90
19196;BMP280;9730;48.926;11.376;2022-11-04T04:52:44;95602.38;;;8.93
19196;BMP280;9730;48.926;11.376;2022-11-04T04:55:12;95622.03;;;8.88
19196;BMP280;9730;48.926;11.376;2022-11-04T04:57:39;95626.28;;;8.75
19196;BMP280;9730;48.926;11.376;2022-11-04T05:00:08;95619.00;;;8.83
19196;BMP280;9730;48.926;11.376;2022-11-04T05:02:36;95602.72;;;8.89
19196;BMP280;9730;48.926;11.376;2022-11-04T05:05:03;95587.22;;;8.95
19196;BMP280;9730;48.926;11.376;2022-11-04T05:07:31;95583.56;;;8.98
19196;BMP280;9730;48.926;11.376;2022-11-04T05:09:58;95589.25;;;8.90
19196;BMP280;9730;48.926;11.376;2022-11-04T05:12:25;95574.66;;;8.95
19196;BMP280;9730;48.926;11.376;2022-11-04T05:15:11;95579.34;;;8.99
19196;BMP280;9730;48.926;11.376;2022-11-04T05:17:38;95584.75;;;9.05
19196;BMP280;9730;48.926;11.376;2022-11-04T05:20:05;95604.56;;;9.10
19196;BMP280;9730;48.926;11.376;2022-11-04T05:22:33;95615.41;;;9.10
19196;BMP280;9730;48.926;11.376;2022-11-04T05:25:00;95612.69;;;9.13
19196;BMP280;9730;48.926;11.376;2022-11-04T05:27:26;95621.72;;;9.16
19196;BMP280;9730;48.926;11.376;2022-11-04T05:29:53;95624.56;;;9.11
19196;BMP280;9730;48.926;11.376;2022-11-04T05:32:19;95630.72;;;9.07
19196;BMP280;9730;48.926;11.376;2022-11-04T05:34:46;95630.00;;;9.05
19196;BMP280;9730;48.926;11.376;2022-11-04T05:37:13;95625.19;;;9.02
19196;BMP280;9730;48.926;11.376;2022-11-04T05:39:40;95629.22;;;9.05
19196;BMP280;9730;48.926;11.376;2022-11-04T05:42:07;95650.47;;;8.89
19196;BMP280;9730;48.926;11.376;2022-11-04T05:44:34;95662.81;;;8.92
19196;BMP280;9730;48.926;11.376;2022-11-04T05:47:00;95682.16;;;8.91
19196;BMP280;9730;48.926;11.376;2022-11-04T05:49:27;95702.25;;;8.91
19196;BMP280;9730;48.926;11.376;2022-11-04T05:51:53;95725.41;;;8.96
19196;BMP280;9730;48.926;11.376;2022-11-04T05:54:20;95734.72;;;8.94
19196;BMP280;9730;48.926;11.376;2022-11-04T05:56:48;95744.69;;;8.96
19196;BMP280;9730;48.926;11.376;2022-11-04T05:59:14;95744.31;;;8.89
19196;BMP280;9730;48.926;11.376;2022-11-04T06:01:41;95748.03;;;8.84
19196;BMP280;9730;48.926;11.376;2022-11-04T06:04:12;95746.63;;;8.80
19196;BMP280;9730;48.926;11.376;2022-11-04T06:06:38;95730.63;;;8.68
19196;BMP280;9730;48.926;11.376;2022-11-04T06:09:05;95730.22;;;8.62
19196;BMP280;9730;48.926;11.376;2022-11-04T06:11:32;95729.63;;;8.71
19196;BMP280;9730;48.926;11.376;2022-11-04T06:14:01;95736.25;;;8.72
19196;BMP280;9730;48.926;11.376;2022-11-04T06:16:27;95730.94;;;8.64
19196;BMP280;9730;48.926;11.376;2022-11-04T06:18:54;95733.75;;;8.72
19196;BMP280;9730;48.926;11.376;2022-11-04T06:21:24;95730.34;;;8.73
19196;BMP280;9730;48.926;11.376;2022-11-04T06:23:51;95736.25;;;8.59
19196;BMP280;9730;48.926;11.376;2022-11-04T06:26:18;95728.19;;;8.67
19196;BMP280;9730;48.926;11.376;2022-11-04T06:28:44;95729.81;;;8.68
19196;BMP280;9730;48.926;11.376;2022-11-04T06:31:13;95737.56;;;8.52
19196;BMP280;9730;48.926;11.376;2022-11-04T06:33:40;95755.34;;;8.49
19196;BMP280;9730;48.926;11.376;2022-11-04T06:36:09;95757.97;;;8.60
19196;BMP280;9730;48.926;11.376;2022-11-04T06:38:35;95757.56;;;8.54
19196;BMP280;9730;48.926;11.376;2022-11-04T06:41:03;95755.44;;;8.48
19196;BMP280;9730;48.926;11.376;2022-11-04T06:43:30;95763.56;;;8.39
19196;BMP280;9730;48.926;11.376;2022-11-04T06:45:57;95769.13;;;8.44
19196;BMP280;9730;48.926;11.376;2022-11-04T06:48:26;95793.13;;;8.48
19196;BMP280;9730;48.926;11.376;2022-11-04T06:50:54;95823.59;;;8.56
19196;BMP280;9730;48.926;11.376;2022-11-04T06:53:21;95832.75;;;8.57
19196;BMP280;9730;48.926;11.376;2022-11-04T06:55:48;95839.47;;;8.56
19196;BMP280;9730;48.926;11.376;2022-11-04T06:58:14;95850.84;;;8.62
19196;BMP280;9730;48.926;11.376;2022-11-04T07:00:41;95845.22;;;8.71
19196;BMP280;9730;48.926;11.376;2022-11-04T07:03:08;95885.63;;;8.68
19196;BMP280;9730;48.926;11.376;2022-11-04T07:05:36;95916.78;;;8.65
19196;BMP280;9730;48.926;11.376;2022-11-04T07:08:03;95926.47;;;8.71
19196;BMP280;9730;48.926;11.376;2022-11-04T07:10:29;95944.34;;;8.67
19196;BMP280;9730;48.926;11.376;2022-11-04T07:12:56;95941.81;;;8.67
19196;BMP280;9730;48.926;11.376;2022-11-04T07:15:22;95937.63;;;8.67
19196;BMP280;9730;48.926;11.376;2022-11-04T07:17:49;95925.84;;;8.68
19196;BMP280;9730;48.926;11.376;2022-11-04T07:20:16;95927.91;;;8.75
19196;BMP280;9730;48.926;11.376;2022-11-04T07:22:43;95944.75;;;8.73
19196;BMP280;9730;48.926;11.376;2022-11-04T07:25:10;95942.69;;;8.80
19196;BMP280;9730;48.926;11.376;2022-11-04T07:27:37;95935.94;;;8.80
19196;BMP280;9730;48.926;11.376;2022-11-04T07:30:04;95948.69;;;8.77
19196;BMP280;9730;48.926;11.376;2022-11-04T07:32:31;95962.69;;;8.55
19196;BMP280;9730;48.926;11.376;2022-11-04T07:34:58;95960.00;;;8.58
19196;BMP280;9730;48.926;11.376;2022-11-04T07:37:24;95952.16;;;8.62
19196;BMP280;9730;48.926;11.376;2022-11-04T07:39:52;95960.53;;;8.63
19196;BMP280;9730;48.926;11.376;2022-11-04T07:42:18;95969.00;;;8.48
19196;BMP280;9730;48.926;11.376;2022-11-04T07:44:51;95973.41;;;8.45
19196;BMP280;9730;48.926;11.376;2022-11-04T07:47:18;95980.47;;;8.52
19196;BMP280;9730;48.926;11.376;2022-11-04T07:49:44;96000.91;;;8.60
19196;BMP280;9730;48.926;11.376;2022-11-04T07:52:11;96003.63;;;8.43
19196;BMP280;9730;48.926;11.376;2022-11-04T07:54:37;96026.34;;;8.42
19196;BMP280;9730;48.926;11.376;2022-11-04T07:57:05;96031.28;;;8.43
19196;BMP280;9730;48.926;11.376;2022-11-04T07:59:32;96037.28;;;8.41
19196;BMP280;9730;48.926;11.376;2022-11-04T08:01:59;96027.84;;;8.58
19196;BMP280;9730;48.926;11.376;2022-11-04T08:04:25;96045.44;;;8.58
19196;BMP280;9730;48.926;11.376;2022-11-04T08:06:52;96069.94;;;8.41
19196;BMP280;9730;48.926;11.376;2022-11-04T08:09:19;96099.19;;;8.55
19196;BMP280;9730;48.926;11.376;2022-11-04T08:11:46;96129.34;;;8.69
19196;BMP280;9730;48.926;11.376;2022-11-04T08:14:13;96148.47;;;8.58
19196;BMP280;9730;48.926;11.376;2022-11-04T08:16:40;96157.88;;;8.54
19196;BMP280;9730;48.926;11.376;2022-11-04T08:19:07;96179.69;;;8.68
19196;BMP280;9730;48.926;11.376;2022-11-04T08:21:33;96202.59;;;8.63
19196;BMP280;9730;48.926;11.376;2022-11-04T08:24:00;96217.03;;;8.74
19196;BMP280;9730;48.926;11.376;2022-11-04T08:26:29;96246.50;;;8.86
19196;BMP280;9730;48.926;11.376;2022-11-04T08:28:56;96260.78;;;8.85
19196;BMP280;9730;48.926;11.376;2022-11-04T08:31:25;96261.75;;;8.97
19196;BMP280;9730;48.926;11.376;2022-11-04T08:33:53;96266.22;;;9.05
19196;BMP280;9730;48.926;11.376;2022-11-04T08:36:22;96284.75;;;9.04
19196;BMP280;9730;48.926;11.376;2022-11-04T08:38:49;96295.88;;;9.00
19196;BMP280;9730;48.926;11.376;2022-11-04T08:41:19;96310.81;;;9.03
19196;BMP280;9730;48.926;11.376;2022-11-04T08:43:46;96337.75;;;9.01
19196;BMP280;9730;48.926;11.376;2022-11-04T08:46:14;96338.09;;;9.09
19196;BMP280;9730;48.926;11.376;2022-11-04T08:48:42;96320.94;;;9.16
19196;BMP280;9730;48.926;11.376;2022-11-04T08:51:13;96310.19;;;9.14
19196;BMP280;9730;48.926;11.376;2022-11-04T08:53:39;96292.38;;;9.17
19196;BMP280;9730;48.926;11.376;2022-11-04T08:56:11;96285.81;;;9.14
19196;BMP280;9730;48.926;11.376;2022-11-04T08:58:37;96274.50;;;9.07
19196;BMP280;9730;48.926;11.376;2022-11-04T09:01:05;96249.72;;;9.15
19196;BMP280;9730;48.926;11.376;2022-11-04T09:03:32;96242.53;;;9.09
19196;BMP280;9730;48.926;11.376;2022-11-04T09:06:02;96233.91;;;9.13
19196;BMP280;9730;48.926;11.376;2022-11-04T09:08:29;96227.69;;;9.19
19196;BMP280;9730;48.926;11.376;2022-11-04T09:10:56;96229.75;;;9.26
19196;BMP280;9730;48.926;11.376;2022-11-04T09:13:22;96227.88;;;9.16
19196;BMP280;9730;48.926;11.376;2022-11-04T09:15:49;96223.56;;;9.04
19196;BMP280;9730;48.926;11.376;2022-11-04T09:18:15;96223.13;;;9.11
19196;BMP280;9730;48.926;11.376;2022-11-04T09:20:42;96229.59;;;9.15
19196;BMP280;9730;48.926;11.376;2022-11-04T09:23:10;96244.84;;;9.12
19196;BMP280;9730;48.926;11.376;2022-11-04T09:25:37;96245.75;;;9.25
19196;BMP280;9730;48.926;11.376;2022-11-04T09:28:03;96239.19;;;9.23
19196;BMP280;9730;48.926;11.376;2022-11-04T09:30:30;96283.41;;;9.13
19196;BMP280;9730;48.926;11.376;2022-11-04T09:32:57;96286.72;;;9.27
19196;BMP280;9730;48.926;11.376;2022-11-04T09:35:23;96298.50;;;9.27
19196;BMP280;9730;48.926;11.376;2022-11-04T09:37:51;96299.28;;;9.27
19196;BMP280;9730;48.926;11.376;2022-11-04T09:40:23;96322.09;;;9.38
19196;BMP280;9730;48.926;11.376;2022-11-04T09:43:00;96330.72;;;9.48
19196;BMP280;9730;48.926;11.376;2022-11-04T09:45:31;96342.59;;;9.60
19196;BMP280;9730;48.926;11.376;2022-11-04T09:48:02;96359.84;;;9.66
19196;BMP280;9730;48.926;11.376;2022-11-04T09:50:32;96359.00;;;9.79
19196;BMP280;9730;48.926;11.376;2022-11-04T09:53:04;96366.44;;;10.08
19196;BMP280;9730;48.926;11.376;2022-11-04T09:55:40;96384.63;;;10.13
19196;BMP280;9730;48.926;11.376;2022-11-04T09:58:08;96382.59;;;10.18
19196;BMP280;9730;48.926;11.376;2022-11-04T10:00:38;96394.31;;;10.19
19196;BMP280;9730;48.926;11.376;2022-11-04T10:03:17;96401.91;;;10.06
19196;BMP280;9730;48.926;11.376;2022-11-04T10:05:58;96405.72;;;10.25
19196;BMP280;9730;48.926;11.376;2022-11-04T10:08:39;96418.28;;;9.99
19196;BMP280;9730;48.926;11.376;2022-11-04T10:11:16;96399.16;;;10.22
19196;BMP280;9730;48.926;11.376;2022-11-04T10:13:55;96409.66;;;10.29
19196;BMP280;9730;48.926;11.376;2022-11-04T10:16:33;96424.59;;;10.32
19196;BMP280;9730;48.926;11.376;2022-11-04T10:19:19;96436.50;;;10.30
19196;BMP280;9730;48.926;11.376;2022-11-04T10:22:01;96430.78;;;10.40
19196;BMP280;9730;48.926;11.376;2022-11-04T10:24:38;96441.66;;;10.55
19196;BMP280;9730;48.926;11.376;2022-11-04T10:27:12;96465.19;;;10.41
19196;BMP280;9730;48.926;11.376;2022-11-04T10:29:42;96468.31;;;10.45
19196;BMP280;9730;48.926;11.376;2022-11-04T10:32:12;96467.22;;;10.49
19196;BMP280;9730;48.926;11.376;2022-11-04T10:34:44;96460.13;;;10.41
19196;BMP280;9730;48.926;11.376;2022-11-04T10:37:12;96467.41;;;10.46
19196;BMP280;9730;48.926;11.376;2022-11-04T10:39:42;96461.56;;;10.45
19196;BMP280;9730;48.926;11.376;2022-11-04T10:42:11;96445.44;;;10.21
19196;BMP280;9730;48.926;11.376;2022-11-04T10:44:38;96437.44;;;10.41
19196;BMP280;9730;48.926;11.376;2022-11-04T10:47:14;96433.84;;;10.45
19196;BMP280;9730;48.926;11.376;2022-11-04T10:49:56;96429.13;;;10.53
19196;BMP280;9730;48.926;11.376;2022-11-04T10:52:26;96431.28;;;10.59
19196;BMP280;9730;48.926;11.376;2022-11-04T10:54:52;96423.22;;;10.66
19196;BMP280;9730;48.926;11.376;2022-11-04T10:57:23;96431.81;;;10.76
19196;BMP280;9730;48.926;11.376;2022-11-04T10:59:52;96438.38;;;10.79
19196;BMP280;9730;48.926;11.376;2022-11-04T11:02:43;96441.03;;;10.90
19196;BMP280;9730;48.926;11.376;2022-11-04T11:05:20;96431.19;;;11.12
19196;BMP280;9730;48.926;11.376;2022-11-04T11:07:49;96437.06;;;11.24
19196;BMP280;9730;48.926;11.376;2022-11-04T11:10:19;96420.59;;;11.31
19196;BMP280;9730;48.926;11.376;2022-11-04T11:12:55;96422.41;;;11.05
19196;BMP280;9730;48.926;11.376;2022-11-04T11:15:28;96423.53;;;11.25
19196;BMP280;9730;48.926;11.376;2022-11-04T11:17:59;96420.09;;;11.14
19196;BMP280;9730;48.926;11.376;2022-11-04T11:20:26;96417.69;;;11.37
19196;BMP280;9730;48.926;11.376;2022-11-04T11:22:53;96415.38;;;11.10
19196;BMP280;9730;48.926;11.376;2022-11-04T11:25:24;96414.56;;;11.21
19196;BMP280;9730;48.926;11.376;2022-11-04T11:27:54;96406.78;;;11.24
19196;BMP280;9730;48.926;11.376;2022-11-04T11:30:24;96415.81;;;11.53
19196;BMP280;9730;48.926;11.376;2022-11-04T11:32:57;96415.59;;;11.56
19196;BMP280;9730;48.926;11.376;2022-11-04T11:35:29;96399.34;;;11.60
19196;BMP280;9730;48.926;11.376;2022-11-04T11:37:57;96395.09;;;11.73
19196;BMP280;9730;48.926;11.376;2022-11-04T11:40:27;96394.25;;;11.85
19196;BMP280;9730;48.926;11.376;2022-11-04T11:42:58;96394.94;;;11.99
19196;BMP280;9730;48.926;11.376;2022-11-04T11:45:25;96402.84;;;11.82
19196;BMP280;9730;48.926;11.376;2022-11-04T11:47:52;96388.19;;;11.87
19196;BMP280;9730;48.926;11.376;2022-11-04T11:50:22;96391.00;;;11.95
19196;BMP280;9730;48.926;11.376;2022-11-04T11:53:06;96395.66;;;11.89
19196;BMP280;9730;48.926;11.376;2022-11-04T11:55:41;96395.72;;;12.00
19196;BMP280;9730;48.926;11.376;2022-11-04T11:58:17;96407.84;;;12.07
19196;BMP280;9730;48.926;11.376;2022-11-04T12:00:49;96400.25;;;12.07
19196;BMP280;9730;48.926;11.376;2022-11-04T12:03:18;96397.94;;;12.04
19196;BMP280;9730;48.926;11.376;2022-11-04T12:05:51;96411.59;;;12.02
19196;BMP280;9730;48.926;11.376;2022-11-04T12:08:37;96404.66;;;11.93
19196;BMP280;9730;48.926;11.376;2022-11-04T12:11:10;96407.78;;;11.71
19196;BMP280;9730;48.926;11.376;2022-11-04T12:13:43;96408.41;;;11.87
19196;BMP280;9730;48.926;11.376;2022-11-04T12:16:23;96410.81;;;11.89
19196;BMP280;9730;48.926;11.376;2022-11-04T12:19:03;96413.13;;;11.92
19196;BMP280;9730;48.926;11.376;2022-11-04T12:21:39;96420.50;;;11.95
19196;BMP280;9730;48.926;11.376;2022-11-04T12:24:15;96424.78;;;11.82
19196;BMP280;9730;48.926;11.376;2022-11-04T12:26:50;96416.81;;;11.51
19196;BMP280;9730;48.926;11.376;2022-11-04T12:29:33;96420.34;;;11.36
19196;BMP280;9730;48.926;11.376;2022-11-04T12:32:11;96423.69;;;11.49
19196;BMP280;9730;48.926;11.376;2022-11-04T12:34:50;96422.34;;;11.43
19196;BMP280;9730;48.926;11.376;2022-11-04T12:37:26;96408.03;;;11.56
19196;BMP280;9730;48.926;11.376;2022-11-04T12:40:05;96411.25;;;11.58
19196;BMP280;9730;48.926;11.376;2022-11-04T12:42:42;96409.75;;;11.56
19196;BMP280;9730;48.926;11.376;2022-11-04T12:45:23;96410.34;;;11.59
19196;BMP280;9730;48.926;11.376;2022-11-04T12:47:53;96403.06;;;11.55
19196;BMP280;9730;48.926;11.376;2022-11-04T12:50:39;96395.50;;;11.55
19196;BMP280;9730;48.926;11.376;2022-11-04T12:56:33;96400.22;;;11.47
19196;BMP280;9730;48.926;11.376;2022-11-04T12:59:33;96392.75;;;11.58
19196;BMP280;9730;48.926;11.376;2022-11-04T13:02:13;96396.13;;;11.58
19196;BMP280;9730;48.926;11.376;2022-11-04T13:04:47;96384.69;;;11.65
19196;BMP280;9730;48.926;11.376;2022-11-04T13:07:18;96397.78;;;11.82
19196;BMP280;9730;48.926;11.376;2022-11-04T13:09:49;96389.31;;;11.71
19196;BMP280;9730;48.926;11.376;2022-11-04T13:12:20;96391.97;;;11.57
19196;BMP280;9730;48.926;11.376;2022-11-04T13:14:52;96388.72;;;11.68
19196;BMP280;9730;48.926;11.376;2022-11-04T13:17:25;96391.84;;;11.59
19196;BMP280;9730;48.926;11.376;2022-11-04T13:19:55;96385.59;;;11.52
19196;BMP280;9730;48.926;11.376;2022-11-04T13:22:26;96394.38;;;11.59
19196;BMP280;9730;48.926;11.376;2022-11-04T13:24:55;96390.06;;;11.48
19196;BMP280;9730;48.926;11.376;2022-11-04T13:27:26;96394.09;;;11.51
19196;BMP280;9730;48.926;11.376;2022-11-04T13:30:04;96391.72;;;11.23
19196;BMP280;9730;48.926;11.376;2022-11-04T13:32:38;96394.69;;;11.29
19196;BMP280;9730;48.926;11.376;2022-11-04T13:35:11;96387.59;;;11.10
19196;BMP280;9730;48.926;11.376;2022-11-04T13:37:47;96393.75;;;11.06
19196;BMP280;9730;48.926;11.376;2022-11-04T13:40:17;96405.66;;;11.04
19196;BMP280;9730;48.926;11.376;2022-11-04T13:43:01;96408.81;;;11.19
19196;BMP280;9730;48.926;11.376;2022-11-04T13:45:47;96424.97;;;11.29
19196;BMP280;9730;48.926;11.376;2022-11-04T13:48:17;96429.81;;;11.32
19196;BMP280;9730;48.926;11.376;2022-11-04T13:50:54;96426.22;;;10.98
19196;BMP280;9730;48.926;11.376;2022-11-04T13:53:39;96439.53;;;11.00
19196;BMP280;9730;48.926;11.376;2022-11-04T13:56:07;96432.31;;;11.08
19196;BMP280;9730;48.926;11.376;2022-11-04T13:58:33;96443.59;;;11.02
19196;BMP280;9730;48.926;11.376;2022-11-04T14:01:12;96442.25;;;10.97
19196;BMP280;9730;48.926;11.376;2022-11-04T14:03:52;96435.91;;;11.04
19196;BMP280;9730;48.926;11.376;2022-11-04T14:06:46;96430.41;;;11.11
19196;BMP280;9730;48.926;11.376;2022-11-04T14:09:33;96426.56;;;11.18
19196;BMP280;9730;48.926;11.376;2022-11-04T14:15:14;96419.81;;;11.18
19196;BMP280;9730;48.926;11.376;2022-11-04T14:18:00;96429.91;;;11.18
19196;BMP280;9730;48.926;11.376;2022-11-04T14:20:32;96431.63;;;11.18
19196;BMP280;9730;48.926;11.376;2022-11-04T14:23:02;96432.00;;;11.12
19196;BMP280;9730;48.926;11.376;2022-11-04T14:25:32;96420.41;;;11.10
19196;BMP280;9730;48.926;11.376;2022-11-04T14:28:00;96418.59;;;11.12
19196;BMP280;9730;48.926;11.376;2022-11-04T14:30:33;96420.97;;;11.01
19196;BMP280;9730;48.926;11.376;2022-11-04T14:33:04;96431.50;;;11.07
19196;BMP280;9730;48.926;11.376;2022-11-04T14:35:33;96434.63;;;11.11
19196;BMP280;9730;48.926;11.376;2022-11-04T14:38:05;96428.03;;;10.96
19196;BMP280;9730;48.926;11.376;2022-11-04T14:40:48;96435.09;;;10.91
19196;BMP280;9730;48.926;11.376;2022-11-04T14:43:33;96434.56;;;10.86
19196;BMP280;9730;48.926;11.376;2022-11-04T14:46:00;96431.22;;;10.73